Time;durP1;ratioP1;P1;durP2;ratioP2;P2;SDS_P1;SDS_P2;PMS_P1;PMS_P2;Temp;Humidity;BMP_temperature;BMP_pressure;BME280_temperature;BME280_humidity;BME280_pressure;Samples;Min_cycle;Max_cycle;Signal;HPM_P1;HPM_P2
2022/03/14 00:00:18;;;;;;;42.03;8.18;;;;;;;9.36;100.00;100368.00;5047960;28;20049;-88
2022/03/14 00:02:46;;;;;;;28.35;7.97;;;;;;;9.72;100.00;100360.50;5049798;28;20055;-89
2022/03/14 00:05:17;;;;;;;26.70;6.38;;;;;;;9.64;100.00;100381.69;5047529;28;20067;-89
2022/03/14 00:07:46;;;;;;;50.78;10.15;;;;;;;9.29;100.00;100355.16;5051182;28;20045;-89
2022/03/14 00:10:18;;;;;;;34.88;8.85;;;;;;;9.52;100.00;100374.31;5049539;28;20053;-89
2022/03/14 00:12:48;;;;;;;33.75;7.65;;;;;;;9.33;100.00;100369.00;5043543;28;20057;-87
2022/03/14 00:15:17;;;;;;;30.98;7.93;;;;;;;9.40;100.00;100380.03;5052569;28;20061;-89
2022/03/14 00:17:45;;;;;;;22.92;5.50;;;;;;;9.42;100.00;100362.53;5052893;28;20045;-89
2022/03/14 00:20:13;;;;;;;32.88;5.68;;;;;;;9.57;100.00;100376.78;5052982;28;20053;-89
2022/03/14 00:22:41;;;;;;;23.83;5.57;;;;;;;9.54;100.00;100376.88;5053679;28;20061;-89
2022/03/14 00:25:10;;;;;;;35.85;5.05;;;;;;;9.26;100.00;100375.31;5052829;28;20083;-89
2022/03/14 00:27:37;;;;;;;24.75;5.47;;;;;;;9.53;100.00;100383.03;5052601;28;20059;-89
2022/03/14 00:30:06;;;;;;;23.60;5.07;;;;;;;9.58;100.00;100384.56;5053952;28;20463;-89
2022/03/14 00:32:34;;;;;;;17.50;4.18;;;;;;;9.62;100.00;100380.91;5037905;28;20068;-89
2022/03/14 00:35:05;;;;;;;30.67;5.75;;;;;;;9.47;100.00;100394.56;5041318;28;20053;-88
2022/03/14 00:37:32;;;;;;;21.98;3.67;;;;;;;9.42;100.00;100373.84;5051814;28;20068;-89
2022/03/14 00:40:00;;;;;;;25.10;4.65;;;;;;;9.55;100.00;100384.66;5043993;28;20102;-89
2022/03/14 00:42:26;;;;;;;18.48;3.60;;;;;;;9.82;100.00;100385.34;5051959;28;20052;-89
2022/03/14 00:44:54;;;;;;;21.73;4.18;;;;;;;9.62;100.00;100398.38;5052618;28;20049;-89
2022/03/14 00:47:21;;;;;;;23.65;3.60;;;;;;;9.73;100.00;100403.16;5052956;28;20419;-88
2022/03/14 00:49:48;;;;;;;22.70;4.22;;;;;;;9.36;100.00;100394.97;5052861;28;20729;-89
2022/03/14 00:52:18;;;;;;;21.75;4.50;;;;;;;9.75;100.00;100398.72;5039910;28;20056;-89
2022/03/14 00:54:45;;;;;;;26.88;5.57;;;;;;;9.55;100.00;100408.19;5032167;28;20404;-88
2022/03/14 00:57:14;;;;;;;16.63;3.17;;;;;;;9.30;100.00;100342.97;5032215;28;20450;-88
2022/03/14 00:59:41;;;;;;;15.82;5.00;;;;;;;9.32;100.00;100402.06;5049057;28;20148;-88
2022/03/14 01:02:09;;;;;;;14.38;2.75;;;;;;;9.89;100.00;100423.41;5044312;28;20063;-89
2022/03/14 01:04:36;;;;;;;31.70;4.38;;;;;;;9.62;100.00;100409.66;5051829;28;20053;-89
2022/03/14 01:07:03;;;;;;;17.60;3.90;;;;;;;9.73;100.00;100411.84;5037136;28;20060;-88
2022/03/14 01:09:30;;;;;;;10.88;2.80;;;;;;;9.87;100.00;100417.38;5034645;28;20136;-87
2022/03/14 01:11:57;;;;;;;13.30;2.38;;;;;;;9.91;100.00;100436.41;5051099;28;20044;-89
2022/03/14 01:14:24;;;;;;;18.38;4.60;;;;;;;9.65;100.00;100440.91;5039141;28;20052;-87
2022/03/14 01:16:52;;;;;;;10.82;2.83;;;;;;;9.67;100.00;100439.09;5032364;28;20049;-89
2022/03/14 01:19:20;;;;;;;12.55;2.95;;;;;;;9.67;100.00;100444.31;5034686;28;20427;-88
2022/03/14 01:21:47;;;;;;;8.98;3.03;;;;;;;9.83;100.00;100455.03;5043324;28;20479;-88
2022/03/14 01:24:14;;;;;;;9.43;2.53;;;;;;;9.81;100.00;100450.75;5033218;28;20053;-87
2022/03/14 01:26:41;;;;;;;16.80;3.28;;;;;;;9.39;100.00;100467.19;5032027;28;20049;-88
2022/03/14 01:29:08;;;;;;;17.10;3.70;;;;;;;9.55;100.00;100484.00;5032153;28;20081;-88
2022/03/14 01:31:34;;;;;;;16.75;3.40;;;;;;;9.72;100.00;100477.28;5031627;28;20049;-88
2022/03/14 01:34:02;;;;;;;15.07;3.28;;;;;;;9.67;100.00;100483.53;5032416;28;20479;-89
2022/03/14 01:36:29;;;;;;;10.82;3.15;;;;;;;9.30;100.00;100479.66;5042029;28;20499;-89
2022/03/14 01:38:56;;;;;;;15.40;2.88;;;;;;;9.15;100.00;100479.38;5051742;28;20045;-89
2022/03/14 01:41:23;;;;;;;11.50;3.63;;;;;;;9.37;100.00;100474.22;5050900;28;20055;-89
2022/03/14 01:43:49;;;;;;;12.02;2.30;;;;;;;9.50;100.00;100491.16;5052857;28;20475;-89
2022/03/14 01:46:16;;;;;;;15.32;3.30;;;;;;;9.48;100.00;100495.59;5051498;28;20044;-89
2022/03/14 01:48:44;;;;;;;12.68;3.45;;;;;;;9.28;100.00;100491.94;5051821;28;20053;-88
2022/03/14 01:51:13;;;;;;;14.95;2.65;;;;;;;9.38;100.00;100505.50;5050706;28;20076;-89
2022/03/14 01:53:40;;;;;;;9.85;2.47;;;;;;;9.47;100.00;100501.72;5050714;28;20112;-89
2022/03/14 01:56:08;;;;;;;11.18;2.55;;;;;;;9.56;100.00;100503.13;5050642;28;20490;-89
2022/03/14 01:58:35;;;;;;;17.58;3.60;;;;;;;9.25;100.00;100491.19;5050839;28;20045;-89
2022/03/14 02:01:02;;;;;;;14.63;3.38;;;;;;;9.10;100.00;100485.63;5050133;28;20053;-88
2022/03/14 02:03:29;;;;;;;18.42;2.90;;;;;;;9.21;100.00;100490.47;5051654;28;20076;-89
2022/03/14 02:05:56;;;;;;;15.93;3.08;;;;;;;9.08;100.00;100490.06;5044203;28;20047;-89
2022/03/14 02:08:23;;;;;;;11.02;3.22;;;;;;;9.26;100.00;100490.28;5046275;28;20483;-89
2022/03/14 02:10:50;;;;;;;23.80;4.50;;;;;;;9.32;100.00;100505.75;5037580;28;20056;-89
2022/03/14 02:13:17;;;;;;;23.20;2.90;;;;;;;9.07;100.00;100492.72;5031138;28;20132;-90
2022/03/14 02:15:45;;;;;;;17.38;3.17;;;;;;;9.02;100.00;100513.75;5031008;28;20045;-90
2022/03/14 02:18:12;;;;;;;12.73;2.42;;;;;;;9.38;100.00;100523.78;5031112;28;20136;-89
2022/03/14 02:20:39;;;;;;;12.73;2.60;;;;;;;9.13;100.00;100516.84;5030791;28;20488;-89
2022/03/14 02:23:05;;;;;;;13.73;2.88;;;;;;;9.21;100.00;100527.03;5048797;28;20139;-87
2022/03/14 02:25:34;;;;;;;14.77;3.15;;;;;;;9.18;100.00;100529.75;5050703;28;20053;-89
2022/03/14 02:28:02;;;;;;;12.18;3.00;;;;;;;9.26;100.00;100548.63;5050440;28;20044;-89
2022/03/14 02:30:29;;;;;;;16.38;2.72;;;;;;;8.77;100.00;100487.63;5049890;28;20079;-88
2022/03/14 02:32:58;;;;;;;13.48;3.65;;;;;;;9.22;100.00;100533.94;5032037;28;20136;-88
2022/03/14 02:35:24;;;;;;;17.77;2.97;;;;;;;9.08;100.00;100536.19;5044287;28;20067;-88
2022/03/14 02:37:51;;;;;;;12.60;2.72;;;;;;;8.95;100.00;100522.72;5050019;28;20045;-88
2022/03/14 02:40:18;;;;;;;11.93;2.40;;;;;;;9.48;100.00;100566.16;5043082;28;20092;-89
2022/03/14 02:42:45;;;;;;;14.75;2.92;;;;;;;9.21;100.00;100557.53;5033620;28;20055;-88
2022/03/14 02:45:12;;;;;;;9.48;2.40;;;;;;;9.15;100.00;100562.97;5030947;28;20555;-88
2022/03/14 02:47:39;;;;;;;11.13;2.58;;;;;;;9.20;100.00;100553.19;5031313;28;20049;-88
2022/03/14 02:50:06;;;;;;;15.98;2.72;;;;;;;8.92;100.00;100548.91;5030723;28;20049;-88
2022/03/14 02:52:33;;;;;;;13.80;2.85;;;;;;;8.87;100.00;100543.00;5043903;28;20049;-88
2022/03/14 02:54:59;;;;;;;15.55;2.72;;;;;;;9.26;100.00;100560.81;5050395;28;20053;-88
2022/03/14 02:57:28;;;;;;;15.18;2.97;;;;;;;9.17;100.00;100558.53;5050022;28;20048;-87
2022/03/14 02:59:56;;;;;;;17.30;2.97;;;;;;;9.20;100.00;100574.94;5050359;28;20474;-87
2022/03/14 03:02:25;;;;;;;16.90;2.45;;;;;;;9.07;100.00;100555.41;5037187;28;20100;-87
2022/03/14 03:04:52;;;;;;;18.27;3.20;;;;;;;8.89;100.00;100570.78;5030695;28;20076;-87
2022/03/14 03:07:19;;;;;;;12.05;2.65;;;;;;;9.11;100.00;100581.34;5035507;28;20049;-87
2022/03/14 03:09:46;;;;;;;8.93;2.45;;;;;;;9.26;100.00;100586.94;5050565;28;20538;-88
2022/03/14 03:12:14;;;;;;;11.68;2.75;;;;;;;9.25;100.00;100587.88;5049502;28;20060;-89
2022/03/14 03:14:41;;;;;;;17.08;2.92;;;;;;;9.15;100.00;100586.47;5050170;28;20418;-86
2022/03/14 03:17:08;;;;;;;15.80;2.60;;;;;;;9.13;100.00;100594.34;5048524;28;20163;-88
2022/03/14 03:19:36;;;;;;;15.20;2.92;;;;;;;9.17;100.00;100605.53;5030513;28;20128;-89
2022/03/14 03:22:03;;;;;;;13.32;2.78;;;;;;;9.05;100.00;100612.06;5031034;28;20042;-88
2022/03/14 03:24:30;;;;;;;6.90;1.90;;;;;;;8.94;100.00;100596.72;5033811;28;20496;-89
2022/03/14 03:26:57;;;;;;;9.25;2.08;;;;;;;8.89;100.00;100611.72;5037288;28;20041;-89
2022/03/14 03:29:24;;;;;;;14.40;3.00;;;;;;;8.77;100.00;100586.00;5054044;28;20044;-88
2022/03/14 03:31:51;;;;;;;8.48;2.17;;;;;;;8.60;100.00;100579.53;5046157;28;20080;-88
2022/03/14 03:34:18;;;;;;;8.05;2.13;;;;;;;8.56;100.00;100572.72;5035204;28;20067;-89
2022/03/14 03:36:45;;;;;;;11.07;2.33;;;;;;;8.62;100.00;100580.34;5033603;28;20050;-88
2022/03/14 03:39:12;;;;;;;6.40;1.90;;;;;;;8.69;100.00;100622.75;5032863;28;20045;-88
2022/03/14 03:41:39;;;;;;;10.43;1.65;;;;;;;8.76;100.00;100634.72;5051055;28;20059;-88
2022/03/14 03:44:07;;;;;;;9.68;2.70;;;;;;;8.74;100.00;100626.94;5053572;28;20136;-89
2022/03/14 03:46:33;;;;;;;4.60;1.50;;;;;;;8.92;100.00;100637.69;5040262;28;20876;-89
2022/03/14 03:49:00;;;;;;;9.55;2.67;;;;;;;8.68;100.00;100636.75;5033436;28;20053;-88
2022/03/14 03:51:27;;;;;;;10.40;2.10;;;;;;;8.62;100.00;100647.34;5034687;28;20053;-88
2022/03/14 03:53:53;;;;;;;10.80;2.30;;;;;;;8.58;100.00;100649.19;5033276;28;20132;-88
2022/03/14 03:56:20;;;;;;;9.90;2.10;;;;;;;8.47;100.00;100652.13;5033371;28;20128;-89
2022/03/14 03:58:47;;;;;;;11.30;2.38;;;;;;;8.50;100.00;100677.31;5033390;28;20060;-88
2022/03/14 04:01:19;;;;;;;8.00;1.98;;;;;;;8.45;100.00;100672.22;5033318;28;20054;-88
2022/03/14 04:03:54;;;;;;;9.30;2.10;;;;;;;8.45;100.00;100673.97;5032823;28;20058;-88
2022/03/14 04:06:30;;;;;;;12.07;2.17;;;;;;;8.48;100.00;100692.13;5033965;28;20054;-88
2022/03/14 04:09:00;;;;;;;9.60;2.40;;;;;;;8.42;100.00;100682.72;5045043;28;20475;-89
2022/03/14 04:11:28;;;;;;;7.22;1.63;;;;;;;8.42;100.00;100680.13;5043528;28;20045;-88
2022/03/14 04:13:58;;;;;;;7.18;2.10;;;;;;;8.41;100.00;100687.97;5032536;28;20052;-87
2022/03/14 04:16:26;;;;;;;8.38;2.00;;;;;;;8.48;100.00;100702.56;5032944;28;20192;-88
2022/03/14 04:18:54;;;;;;;16.80;3.10;;;;;;;8.34;100.00;100679.47;5034111;28;20137;-88
2022/03/14 04:21:21;;;;;;;14.52;3.50;;;;;;;8.22;100.00;100696.31;5052475;28;20045;-88
2022/03/14 04:23:48;;;;;;;5.75;1.80;;;;;;;8.64;100.00;100705.56;5040589;28;20049;-88
2022/03/14 04:26:15;;;;;;;10.10;1.98;;;;;;;8.61;100.00;100705.69;5033089;28;20057;-88
2022/03/14 04:28:42;;;;;;;17.30;3.38;;;;;;;8.84;100.00;100713.66;5033356;28;20057;-86
2022/03/14 04:31:09;;;;;;;10.30;2.10;;;;;;;8.56;100.00;100708.41;5035103;28;20576;-89
2022/03/14 04:33:36;;;;;;;11.70;2.10;;;;;;;8.78;100.00;100726.88;5051145;28;20419;-88
2022/03/14 04:36:04;;;;;;;8.20;2.38;;;;;;;8.76;100.00;100709.56;5052825;28;20056;-88
2022/03/14 04:38:31;;;;;;;5.90;1.63;;;;;;;8.70;100.00;100726.28;5039822;28;20057;-91
2022/03/14 04:40:58;;;;;;;12.32;2.13;;;;;;;8.63;100.00;100724.75;5044066;28;20052;-89
2022/03/14 04:43:26;;;;;;;10.52;2.00;;;;;;;8.49;100.00;100709.50;5052371;28;20396;-90
2022/03/14 04:45:53;;;;;;;10.27;1.92;;;;;;;8.55;100.00;100714.53;5052474;28;20135;-90
2022/03/14 04:48:20;;;;;;;13.27;2.03;;;;;;;8.52;100.00;100738.13;5051809;28;20045;-91
2022/03/14 04:50:47;;;;;;;9.85;2.10;;;;;;;8.43;100.00;100717.50;5052388;28;20130;-90
2022/03/14 04:53:14;;;;;;;5.13;1.80;;;;;;;8.42;100.00;100714.03;5050610;28;20080;-90
2022/03/14 04:55:41;;;;;;;9.13;1.98;;;;;;;8.20;100.00;100692.91;5051252;28;20060;-89
2022/03/14 04:58:12;;;;;;;6.53;2.00;;;;;;;8.24;100.00;100697.13;5052164;28;20049;-90
2022/03/14 05:00:39;;;;;;;10.10;1.98;;;;;;;8.41;100.00;100753.19;5051966;28;20467;-90
2022/03/14 05:03:08;;;;;;;10.43;2.90;;;;;;;8.13;100.00;100727.88;5047871;28;20049;-90
2022/03/14 05:05:35;;;;;;;15.57;2.88;;;;;;;8.11;100.00;100763.56;5049798;28;20427;-90
2022/03/14 05:08:02;;;;;;;8.57;2.38;;;;;;;8.02;100.00;100758.59;5043974;28;20063;-89
2022/03/14 05:10:29;;;;;;;9.07;2.08;;;;;;;8.14;100.00;100747.84;5051074;28;20079;-89
2022/03/14 05:13:00;;;;;;;8.80;2.10;;;;;;;8.31;100.00;100755.22;5050166;28;20424;-89
2022/03/14 05:15:29;;;;;;;7.07;1.80;;;;;;;8.26;100.00;100762.31;5066200;28;20049;-88
2022/03/14 05:17:57;;;;;;;8.73;1.90;;;;;;;8.10;100.00;100751.44;5051269;28;20049;-89
2022/03/14 05:20:24;;;;;;;6.82;1.98;;;;;;;8.06;100.00;100761.09;5049231;28;20463;-89
2022/03/14 05:22:52;;;;;;;6.95;2.00;;;;;;;7.73;100.00;100726.34;5045874;28;20414;-88
2022/03/14 05:25:23;;;;;;;8.57;1.92;;;;;;;7.57;100.00;100707.63;5049374;28;20128;-89
2022/03/14 05:27:52;;;;;;;8.10;2.10;;;;;;;7.82;100.00;100746.09;5052024;28;20053;-91
2022/03/14 05:30:18;;;;;;;5.38;1.60;;;;;;;7.60;100.00;100741.44;5053847;28;20043;-92
2022/03/14 05:32:45;;;;;;;8.25;1.92;;;;;;;7.81;100.00;100784.34;5047555;28;20060;-93
2022/03/14 05:35:14;;;;;;;7.50;1.80;;;;;;;7.67;100.00;100760.38;5049743;28;20132;-92
2022/03/14 05:37:46;;;;;;;10.10;2.00;;;;;;;7.69;100.00;100762.06;5066306;28;20044;-91
2022/03/14 05:40:15;;;;;;;7.55;1.95;;;;;;;7.88;100.00;100785.91;5049685;28;20045;-92
2022/03/14 05:42:45;;;;;;;7.75;2.03;;;;;;;7.83;100.00;100774.75;5049113;28;20057;-89
2022/03/14 05:45:13;;;;;;;7.53;2.00;;;;;;;7.76;100.00;100774.03;5049357;28;20053;-88
2022/03/14 05:47:40;;;;;;;6.50;1.90;;;;;;;8.02;100.00;100801.19;5050006;28;20051;-89
2022/03/14 05:50:07;;;;;;;7.90;1.85;;;;;;;7.84;100.00;100775.59;5050587;28;20059;-89
2022/03/14 05:52:34;;;;;;;10.98;2.55;;;;;;;8.03;100.00;100802.91;5047011;28;20053;-89
2022/03/14 05:55:02;;;;;;;7.00;1.98;;;;;;;7.98;100.00;100802.16;5049202;28;20048;-90
2022/03/14 05:57:28;;;;;;;10.35;2.30;;;;;;;7.39;100.00;100735.84;5052016;28;20059;-89
2022/03/14 05:59:55;;;;;;;9.48;2.25;;;;;;;7.75;100.00;100782.72;5050471;28;20136;-90
2022/03/14 06:02:23;;;;;;;6.45;1.90;;;;;;;7.90;100.00;100817.16;5050876;28;20459;-89
2022/03/14 06:04:52;;;;;;;6.18;1.88;;;;;;;7.85;100.00;100812.03;5052196;28;20053;-90
2022/03/14 06:07:21;;;;;;;9.25;2.10;;;;;;;7.64;100.00;100829.06;5048598;28;20059;-89
2022/03/14 06:09:49;;;;;;;11.70;2.13;;;;;;;7.45;100.00;100817.34;5050893;28;20155;-90
2022/03/14 06:12:28;;;;;;;8.27;1.95;;;;;;;7.53;100.00;100826.72;5049888;28;20792;-90
2022/03/14 06:14:57;;;;;;;8.55;1.92;;;;;;;7.38;100.00;100809.69;5047138;28;20055;-89
2022/03/14 06:17:29;;;;;;;7.53;2.33;;;;;;;7.54;100.00;100817.13;5048705;28;20061;-89
2022/03/14 06:19:56;;;;;;;8.73;2.35;;;;;;;7.44;100.00;100813.03;5050887;28;20052;-89
2022/03/14 06:22:23;;;;;;;15.82;3.05;;;;;;;7.28;100.00;100818.63;5041697;28;20045;-89
2022/03/14 06:24:50;;;;;;;7.68;2.22;;;;;;;7.56;100.00;100826.66;5049802;28;20064;-88
2022/03/14 06:27:20;;;;;;;11.95;2.40;;;;;;;7.53;100.00;100839.75;5050300;28;20406;-89
2022/03/14 06:29:51;;;;;;;9.45;2.72;;;;;;;7.36;100.00;100828.84;5048376;28;20045;-89
2022/03/14 06:32:18;;;;;;;7.60;2.17;;;;;;;7.30;100.00;100813.38;5045388;28;20049;-91
2022/03/14 06:34:45;;;;;;;10.68;2.70;;;;;;;7.45;100.00;100828.63;5050504;28;20059;-89
2022/03/14 06:37:12;;;;;;;9.00;2.17;;;;;;;7.51;100.00;100840.69;5050459;28;20049;-90
2022/03/14 06:39:40;;;;;;;10.75;2.42;;;;;;;7.67;100.00;100869.84;5046312;28;20046;-90
2022/03/14 06:42:12;;;;;;;8.35;2.22;;;;;;;7.52;100.00;100844.97;5045056;28;20406;-89
2022/03/14 06:44:41;;;;;;;10.20;2.13;;;;;;;7.60;100.00;100859.53;5042605;28;20124;-89
2022/03/14 06:47:10;;;;;;;9.07;2.72;;;;;;;7.57;100.00;100858.75;5046988;28;20099;-89
2022/03/14 06:49:42;;;;;;;4.60;1.83;;;;;;;7.38;100.00;100820.13;5048524;28;20055;-89
2022/03/14 06:52:09;;;;;;;5.43;2.00;;;;;;;7.29;100.00;100817.69;5044838;28;20045;-90
2022/03/14 06:54:36;;;;;;;6.35;2.25;;;;;;;7.31;100.00;100818.56;5049547;28;20053;-90
2022/03/14 06:57:03;;;;;;;14.05;2.70;;;;;;;7.35;100.00;100848.00;5061746;28;20519;-90
2022/03/14 06:59:30;;;;;;;10.38;2.20;;;;;;;7.39;100.00;100847.03;5051679;28;20042;-91
2022/03/14 07:01:57;;;;;;;6.80;2.10;;;;;;;7.52;100.00;100863.22;5049151;28;20045;-88
2022/03/14 07:04:24;;;;;;;10.02;2.30;;;;;;;7.48;100.00;100869.41;5051438;28;20713;-88
2022/03/14 07:06:51;;;;;;;8.40;2.40;;;;;;;7.31;100.00;100852.41;5052669;28;20051;-90
2022/03/14 07:09:18;;;;;;;9.57;2.70;;;;;;;7.27;100.00;100886.34;5053862;28;20045;-90
2022/03/14 07:11:51;;;;;;;7.70;2.28;;;;;;;7.80;100.00;100912.97;5052064;28;20048;-90
2022/03/14 07:14:19;;;;;;;10.85;2.58;;;;;;;7.70;100.00;100857.59;5054097;28;20057;-88
2022/03/14 07:16:47;;;;;;;17.95;4.22;;;;;;;7.52;100.00;100850.19;5050913;28;20106;-90
2022/03/14 07:19:14;;;;;;;7.60;2.15;;;;;;;7.89;100.00;100883.22;5054085;28;20471;-94
2022/03/14 07:21:41;;;;;;;10.27;2.70;;;;;;;8.18;100.00;100901.63;5049442;28;20067;-89
2022/03/14 07:24:08;;;;;;;7.93;2.35;;;;;;;8.15;100.00;100912.13;5054253;28;20059;-93
2022/03/14 07:26:35;;;;;;;18.85;3.25;;;;;;;8.03;100.00;100916.78;5053115;28;20049;-93
2022/03/14 07:29:02;;;;;;;6.25;2.03;;;;;;;8.11;100.00;100902.66;5055062;28;20258;-92
2022/03/14 07:31:29;;;;;;;8.65;2.05;;;;;;;8.62;100.00;100882.25;5040645;28;20455;-92
2022/03/14 07:33:56;;;;;;;7.97;2.40;;;;;;;9.45;100.00;100896.38;5052156;28;20046;-92
2022/03/14 07:36:23;;;;;;;8.82;2.38;;;;;;;9.86;100.00;100916.94;5053952;28;20055;-92
2022/03/14 07:38:50;;;;;;;5.97;1.75;;;;;;;9.65;100.00;100893.19;5041348;28;20063;-92
2022/03/14 07:41:17;;;;;;;11.77;2.53;;;;;;;10.20;100.00;100910.63;5045561;28;20045;-93
2022/03/14 07:43:44;;;;;;;7.70;1.90;;;;;;;10.32;100.00;100902.38;5052585;28;20052;-91
2022/03/14 07:46:11;;;;;;;6.63;1.60;;;;;;;10.60;100.00;100883.94;5049207;28;20049;-91
2022/03/14 07:48:37;;;;;;;7.15;2.28;;;;;;;10.67;100.00;100930.88;5056258;28;20486;-92
2022/03/14 07:51:04;;;;;;;6.80;1.95;;;;;;;10.80;100.00;100919.94;5051372;28;20498;-90
2022/03/14 07:53:31;;;;;;;13.82;3.00;;;;;;;9.94;100.00;100890.56;5049725;28;20044;-91
2022/03/14 07:55:58;;;;;;;7.90;2.42;;;;;;;10.50;100.00;100926.22;5053637;28;20045;-91
2022/03/14 07:58:25;;;;;;;6.85;1.92;;;;;;;11.16;100.00;100916.03;5053590;28;20479;-91
2022/03/14 08:00:56;;;;;;;11.10;2.17;;;;;;;11.14;100.00;100933.56;5044953;28;20045;-92
2022/03/14 08:03:24;;;;;;;7.55;1.90;;;;;;;11.74;100.00;100915.56;5048873;28;20071;-94
2022/03/14 08:06:00;;;;;;;7.22;1.60;;;;;;;12.32;100.00;100941.22;5057550;28;20103;-93
2022/03/14 08:08:27;;;;;;;4.97;1.52;;;;;;;11.83;100.00;100909.94;5046439;28;20045;-94
2022/03/14 08:10:55;;;;;;;6.60;1.58;;;;;;;12.12;100.00;100952.56;5034469;28;20131;-93
2022/03/14 08:13:22;;;;;;;10.35;1.85;;;;;;;11.33;100.00;100942.47;5034983;28;20060;-93
2022/03/14 08:15:49;;;;;;;7.13;2.10;;;;;;;11.25;100.00;100946.28;5043445;28;20045;-93
2022/03/14 08:18:16;;;;;;;9.35;1.77;;;;;;;11.41;100.00;100950.03;5054830;28;20049;-93
2022/03/14 08:20:43;;;;;;;5.18;1.63;;;;;;;11.58;100.00;100946.78;5054024;28;20048;-93
2022/03/14 08:23:10;;;;;;;10.57;1.85;;;;;;;11.78;100.00;100954.72;5052877;28;20052;-93
2022/03/14 08:25:37;;;;;;;6.95;1.65;;;;;;;11.82;100.00;100960.69;5056481;28;20055;-94
2022/03/14 08:28:04;;;;;;;6.90;1.55;;;;;;;11.80;100.00;100909.22;5056649;28;20644;-93
2022/03/14 08:30:31;;;;;;;9.38;1.90;;;;;;;12.63;100.00;100945.19;5059964;28;20137;-94
2022/03/14 08:32:58;;;;;;;6.80;2.08;;;;;;;12.32;100.00;100942.09;5055015;28;20483;-92
2022/03/14 08:35:27;;;;;;;12.48;2.17;;;;;;;11.58;100.00;100950.25;5053761;28;20478;-90
2022/03/14 08:37:55;;;;;;;9.82;2.47;;;;;;;11.38;100.00;100955.38;5048211;28;20136;-90
2022/03/14 08:40:24;;;;;;;7.30;1.73;;;;;;;12.16;100.00;100964.63;5038466;28;20501;-91
2022/03/14 08:42:53;;;;;;;7.80;1.83;;;;;;;12.04;100.00;100971.25;5036401;28;20133;-93
2022/03/14 08:45:21;;;;;;;5.07;1.70;;;;;;;12.64;100.00;100967.91;5035010;28;20495;-92
2022/03/14 08:47:48;;;;;;;5.85;1.70;;;;;;;12.47;100.00;100973.88;5033647;28;20053;-91
2022/03/14 08:50:16;;;;;;;8.80;1.67;;;;;;;11.95;100.00;100963.72;5033027;28;20448;-91
2022/03/14 08:52:45;;;;;;;5.78;1.75;;;;;;;12.24;100.00;100966.97;5032363;28;20059;-92
2022/03/14 08:55:13;;;;;;;5.40;1.85;;;;;;;12.07;100.00;100960.59;5032401;28;20435;-90
2022/03/14 08:57:41;;;;;;;10.52;1.75;;;;;;;12.31;100.00;100948.25;5031968;28;20080;-88
2022/03/14 09:00:09;;;;;;;9.02;2.05;;;;;;;12.10;100.00;100980.63;5031954;28;20042;-87
2022/03/14 09:02:36;;;;;;;6.63;1.83;;;;;;;12.58;100.00;100978.69;5031585;28;20780;-88
2022/03/14 09:05:03;;;;;;;4.25;1.33;;;;;;;12.65;100.00;100988.00;5031767;28;20052;-88
2022/03/14 09:07:31;;;;;;;6.22;1.63;;;;;;;12.43;100.00;100975.78;5051278;28;20059;-88
2022/03/14 09:10:06;;;;;;;7.28;1.98;;;;;;;12.46;100.00;100980.03;5051179;28;20107;-87
2022/03/14 09:12:33;;;;;;;5.05;1.42;;;;;;;12.32;100.00;100989.34;5045841;28;20479;-88
2022/03/14 09:15:01;;;;;;;6.25;1.77;;;;;;;12.05;100.00;100985.22;5051639;28;20049;-88
2022/03/14 09:17:29;;;;;;;8.43;1.90;;;;;;;12.13;100.00;100999.75;5051792;28;20057;-88
2022/03/14 09:19:56;;;;;;;4.30;1.42;;;;;;;12.67;100.00;100991.44;5052965;28;20049;-90
2022/03/14 09:22:23;;;;;;;13.50;2.08;;;;;;;12.26;100.00;100973.84;5046840;28;20059;-90
2022/03/14 09:24:52;;;;;;;9.20;1.98;;;;;;;11.95;100.00;101010.94;5052228;28;20063;-89
2022/03/14 09:27:18;;;;;;;9.63;1.80;;;;;;;12.17;100.00;100991.75;5051543;28;20055;-89
2022/03/14 09:29:45;;;;;;;7.00;1.70;;;;;;;12.43;100.00;100985.41;5051470;28;20051;-89
2022/03/14 09:32:13;;;;;;;12.05;1.95;;;;;;;11.99;100.00;100993.31;5050274;28;20053;-89
2022/03/14 09:34:40;;;;;;;10.15;2.10;;;;;;;11.75;100.00;100986.31;5051955;28;20060;-89
2022/03/14 09:37:07;;;;;;;7.93;1.50;;;;;;;12.39;100.00;100997.81;5051623;28;20060;-88
2022/03/14 09:39:34;;;;;;;6.97;1.63;;;;;;;12.52;100.00;100987.69;5042961;28;20388;-87
2022/03/14 09:42:02;;;;;;;9.93;2.17;;;;;;;12.37;100.00;100993.56;5044836;28;20041;-87
2022/03/14 09:44:30;;;;;;;3.70;1.50;;;;;;;11.98;99.86;100949.63;5051350;28;20506;-87
2022/03/14 09:47:01;;;;;;;9.68;1.85;;;;;;;12.03;96.41;100959.03;5032617;28;20056;-87
2022/03/14 09:49:31;;;;;;;6.80;1.60;;;;;;;11.85;99.98;101007.81;5031741;28;20052;-87
2022/03/14 09:51:59;;;;;;;5.22;1.50;;;;;;;11.66;100.00;100952.56;5030202;28;20051;-87
2022/03/14 09:54:26;;;;;;;8.68;1.60;;;;;;;12.01;99.36;100994.97;5031147;28;20053;-88
2022/03/14 09:57:00;;;;;;;4.22;1.50;;;;;;;12.11;99.78;101000.69;5036796;28;20129;-86
2022/03/14 09:59:28;;;;;;;7.53;2.08;;;;;;;12.39;99.83;101004.84;5051825;28;20135;-87
2022/03/14 10:01:54;;;;;;;9.05;1.80;;;;;;;12.03;98.99;101013.28;5046767;28;20041;-87
2022/03/14 10:04:22;;;;;;;7.00;1.75;;;;;;;12.19;96.68;100982.03;5052262;28;20084;-87
2022/03/14 10:06:49;;;;;;;6.70;1.40;;;;;;;12.55;95.24;100992.78;5046387;28;20041;-89
2022/03/14 10:09:16;;;;;;;9.20;1.85;;;;;;;12.66;92.56;101023.84;5033143;28;20170;-88
2022/03/14 10:11:44;;;;;;;8.55;1.65;;;;;;;12.04;91.92;101013.22;5049033;28;20141;-88
2022/03/14 10:14:11;;;;;;;8.75;1.67;;;;;;;12.73;92.78;101057.72;5046155;28;20049;-87
2022/03/14 10:16:38;;;;;;;7.97;1.98;;;;;;;12.69;89.96;101050.00;5030527;28;20056;-88
2022/03/14 10:19:09;;;;;;;7.78;1.40;;;;;;;12.91;88.01;101034.22;5042509;28;20470;-89
2022/03/14 10:21:37;;;;;;;9.60;1.70;;;;;;;12.66;87.55;101055.38;5041727;28;20045;-88
2022/03/14 10:24:05;;;;;;;8.55;1.60;;;;;;;11.55;91.85;101042.13;5060919;28;20561;-88
2022/03/14 10:26:33;;;;;;;10.75;2.15;;;;;;;11.56;93.26;101059.59;5046261;28;20389;-88
2022/03/14 10:29:03;;;;;;;7.05;1.75;;;;;;;11.34;93.13;101077.84;5050325;28;20406;-88
2022/03/14 10:31:39;;;;;;;7.63;2.10;;;;;;;11.12;98.79;101082.13;5035980;28;20072;-89
2022/03/14 10:34:13;;;;;;;9.35;1.67;;;;;;;11.32;97.69;101078.84;5053251;28;20422;-89
2022/03/14 10:36:52;;;;;;;5.47;1.50;;;;;;;10.95;99.54;101067.84;5034644;28;20053;-89
2022/03/14 10:39:27;;;;;;;9.65;2.10;;;;;;;11.08;99.49;101076.13;5035201;28;20487;-89
2022/03/14 10:42:04;;;;;;;8.40;1.88;;;;;;;11.16;100.00;101094.22;5047185;28;20079;-89
2022/03/14 10:44:45;;;;;;;9.52;2.17;;;;;;;11.02;100.00;101086.84;5055462;28;20045;-89
2022/03/14 10:47:13;;;;;;;8.10;1.55;;;;;;;11.23;100.00;101090.50;5055150;28;20462;-88
2022/03/14 10:49:43;;;;;;;9.07;2.00;;;;;;;11.27;100.00;101078.97;5055007;28;20509;-89
2022/03/14 10:52:13;;;;;;;12.93;2.03;;;;;;;11.30;100.00;101076.25;5042485;28;20049;-88
2022/03/14 10:54:42;;;;;;;7.82;1.70;;;;;;;11.04;100.00;101092.03;5035006;28;20403;-86
2022/03/14 10:57:24;;;;;;;7.00;1.92;;;;;;;11.06;100.00;101116.41;5034262;28;20463;-89
2022/03/14 10:59:52;;;;;;;7.57;1.80;;;;;;;10.91;100.00;101128.28;5035975;28;20053;-89
2022/03/14 11:02:24;;;;;;;8.20;2.78;;;;;;;10.47;100.00;101094.72;5034586;28;20049;-88
2022/03/14 11:04:57;;;;;;;11.52;2.90;;;;;;;10.70;100.00;101114.94;5034472;28;20057;-89
2022/03/14 11:07:27;;;;;;;9.73;3.00;;;;;;;11.30;100.00;101102.47;5034346;28;20057;-89
2022/03/14 11:09:58;;;;;;;12.02;3.10;;;;;;;11.56;100.00;101114.66;5040501;28;20057;-89
2022/03/14 11:12:28;;;;;;;10.80;3.55;;;;;;;11.81;95.95;101123.41;5045606;28;20047;-89
2022/03/14 11:15:06;;;;;;;7.93;2.00;;;;;;;11.74;93.91;101112.31;5054314;28;20506;-88
2022/03/14 11:17:35;;;;;;;6.35;1.65;;;;;;;11.16;96.57;101117.81;5054175;28;20474;-89
2022/03/14 11:20:22;;;;;;;12.85;3.33;;;;;;;11.56;94.91;101121.66;5054199;28;20049;-88
2022/03/14 11:22:50;;;;;;;12.90;3.88;;;;;;;11.45;95.07;101106.31;5052986;28;20407;-89